Time;durP1;ratioP1;P1;durP2;ratioP2;P2;SDS_P1;SDS_P2;PMS_P1;PMS_P2;Temp;Humidity;BMP_temperature;BMP_pressure;BME280_temperature;BME280_humidity;BME280_pressure;Samples;Min_cycle;Max_cycle;Signal;HPM_P1;HPM_P2
2022/12/24 00:00:00;;;;;;;3.38;2.10;;;;;;;;;;5109915;27;20078;-85
2022/12/24 00:02:26;;;;;;;3.90;2.45;;;;;;;;;;5128847;27;20103;-85
2022/12/24 00:04:51;;;;;;;5.25;3.53;;;;;;;;;;5121727;27;20063;-85
2022/12/24 00:07:16;;;;;;;4.68;2.60;;;;;;;;;;5121688;27;20492;-85
2022/12/24 00:09:42;;;;;;;3.47;2.55;;;;;;;;;;5119474;27;20023;-85
2022/12/24 00:12:07;;;;;;;3.40;2.03;;;;;;;;;;5124403;27;20019;-85
2022/12/24 00:14:32;;;;;;;4.90;2.50;;;;;;;;;;5126875;27;20039;-85
2022/12/24 00:16:58;;;;;;;3.05;1.92;;;;;;;;;;5121942;27;20415;-85
2022/12/24 00:19:23;;;;;;;1.35;1.10;;;;;;;;;;5128851;27;20040;-84
2022/12/24 00:21:49;;;;;;;1.45;0.98;;;;;;;;;;5104687;28;20542;-85
2022/12/24 00:24:14;;;;;;;0.38;0.30;;;;;;;;;;5124189;27;20029;-85
2022/12/24 00:26:40;;;;;;;2.65;1.63;;;;;;;;;;5123959;27;20066;-85
2022/12/24 00:29:05;;;;;;;3.08;2.47;;;;;;;;;;5123819;27;20024;-84
2022/12/24 00:31:31;;;;;;;8.23;3.38;;;;;;;;;;5124501;27;20019;-85
2022/12/24 00:33:56;;;;;;;4.00;2.10;;;;;;;;;;5111238;27;20023;-85
2022/12/24 00:36:22;;;;;;;3.83;2.25;;;;;;;;;;5109011;27;20026;-85
2022/12/24 00:38:47;;;;;;;2.88;2.10;;;;;;;;;;5105494;27;20520;-85
2022/12/24 00:41:27;;;;;;;3.00;1.17;;;;;;;;;;5122213;27;20036;-85
2022/12/24 00:43:55;;;;;;;3.08;1.58;;;;;;;;;;5122551;27;20023;-85
2022/12/24 00:46:22;;;;;;;2.15;1.48;;;;;;;;;;5098984;27;20106;-85
2022/12/24 00:48:48;;;;;;;3.83;3.35;;;;;;;;;;5125143;27;20477;-84
2022/12/24 00:51:13;;;;;;;4.72;2.50;;;;;;;;;;5119939;27;20075;-84
2022/12/24 00:53:39;;;;;;;2.88;1.98;;;;;;;;;;5122394;27;20040;-83
2022/12/24 00:56:05;;;;;;;3.28;2.50;;;;;;;;;;5124268;28;20054;-83
2022/12/24 00:58:31;;;;;;;2.88;2.33;;;;;;;;;;5123942;27;20041;-84
2022/12/24 01:00:56;;;;;;;2.70;2.13;;;;;;;;;;5122040;28;20093;-84
2022/12/24 01:03:22;;;;;;;5.32;3.30;;;;;;;;;;5103319;28;20106;-83
2022/12/24 01:05:47;;;;;;;3.22;2.28;;;;;;;;;;5102422;28;20020;-84
2022/12/24 01:08:13;;;;;;;6.60;3.75;;;;;;;;;;5102253;28;20276;-84
2022/12/24 01:10:38;;;;;;;5.47;3.25;;;;;;;;;;5122931;28;20019;-84
2022/12/24 01:13:03;;;;;;;5.22;3.40;;;;;;;;;;5124041;28;20028;-84
2022/12/24 01:15:29;;;;;;;4.00;2.92;;;;;;;;;;5124157;28;20019;-84
2022/12/24 01:17:54;;;;;;;1.63;1.23;;;;;;;;;;5104590;28;20031;-83
2022/12/24 01:20:20;;;;;;;2.42;1.48;;;;;;;;;;5120634;28;20068;-83
2022/12/24 01:22:45;;;;;;;2.08;1.40;;;;;;;;;;5119390;28;20055;-84
2022/12/24 01:25:11;;;;;;;1.23;1.02;;;;;;;;;;5107366;28;20532;-84
2022/12/24 01:27:37;;;;;;;1.00;0.68;;;;;;;;;;5098897;28;20479;-84
2022/12/24 01:30:05;;;;;;;1.58;1.08;;;;;;;;;;5108658;28;20035;-84
2022/12/24 01:32:30;;;;;;;1.35;1.23;;;;;;;;;;5106167;28;20030;-84
2022/12/24 01:34:56;;;;;;;1.73;1.15;;;;;;;;;;5126515;27;20534;-84
2022/12/24 01:37:22;;;;;;;2.92;1.77;;;;;;;;;;5103476;28;20106;-84
2022/12/24 01:39:47;;;;;;;1.63;0.90;;;;;;;;;;5126279;27;20401;-84
2022/12/24 01:45:41;;;;;;;2.53;1.08;;;;;;;;;;5126644;27;20111;-84
2022/12/24 01:48:30;;;;;;;3.88;1.95;;;;;;;;;;5124346;27;20027;-84
2022/12/24 01:51:14;;;;;;;1.35;0.90;;;;;;;;;;5115807;27;20072;-83
2022/12/24 01:53:42;;;;;;;1.17;0.95;;;;;;;;;;5126313;27;20522;-83
2022/12/24 01:56:10;;;;;;;0.65;0.63;;;;;;;;;;5127303;27;20425;-83
2022/12/24 01:58:36;;;;;;;2.20;0.93;;;;;;;;;;5123406;27;21053;-84
2022/12/24 02:01:02;;;;;;;1.08;0.77;;;;;;;;;;5128182;27;20099;-85
2022/12/24 02:03:28;;;;;;;2.28;1.75;;;;;;;;;;5125097;27;20128;-86
2022/12/24 02:05:55;;;;;;;1.85;1.02;;;;;;;;;;5103121;28;20039;-85
2022/12/24 02:08:21;;;;;;;2.15;1.30;;;;;;;;;;5129992;27;20031;-85
2022/12/24 02:10:48;;;;;;;1.35;1.08;;;;;;;;;;5128597;27;20065;-85
2022/12/24 02:13:17;;;;;;;1.30;0.93;;;;;;;;;;5120849;27;20060;-85
2022/12/24 02:16:07;;;;;;;2.78;0.98;;;;;;;;;;5104134;27;20030;-85
2022/12/24 02:18:42;;;;;;;0.70;0.70;;;;;;;;;;5101579;28;20035;-85
2022/12/24 02:21:34;;;;;;;2.38;1.25;;;;;;;;;;5128862;27;20364;-84
2022/12/24 02:24:15;;;;;;;2.50;1.50;;;;;;;;;;5120247;27;20118;-84
2022/12/24 02:26:49;;;;;;;1.30;1.20;;;;;;;;;;5119213;27;20078;-85
2022/12/24 02:29:33;;;;;;;3.08;1.40;;;;;;;;;;5120639;27;20046;-85
2022/12/24 02:32:07;;;;;;;2.50;1.67;;;;;;;;;;5126077;27;20088;-86
2022/12/24 02:34:37;;;;;;;2.10;1.50;;;;;;;;;;5104519;28;20046;-85
2022/12/24 02:37:14;;;;;;;1.70;1.50;;;;;;;;;;5111709;27;20023;-85
2022/12/24 02:39:46;;;;;;;1.23;0.90;;;;;;;;;;5124382;27;20019;-85
2022/12/24 02:42:16;;;;;;;1.45;0.93;;;;;;;;;;5118396;27;20028;-84
2022/12/24 02:44:50;;;;;;;2.15;0.90;;;;;;;;;;5120090;27;20027;-86
2022/12/24 02:47:18;;;;;;;0.32;0.32;;;;;;;;;;5106877;27;20099;-84
2022/12/24 02:49:46;;;;;;;0.47;0.47;;;;;;;;;;5122688;27;20023;-86
2022/12/24 02:52:37;;;;;;;1.45;1.10;;;;;;;;;;5125839;27;20049;-85
2022/12/24 02:55:08;;;;;;;0.95;0.85;;;;;;;;;;5121462;27;20031;-85
2022/12/24 02:57:42;;;;;;;1.75;1.65;;;;;;;;;;5104847;27;20023;-85
2022/12/24 03:00:13;;;;;;;1.48;0.98;;;;;;;;;;5123789;27;20467;-85
2022/12/24 03:03:10;;;;;;;1.08;0.77;;;;;;;;;;5126372;27;20034;-85
2022/12/24 03:05:50;;;;;;;1.35;1.25;;;;;;;;;;5122179;27;20095;-84
2022/12/24 03:08:24;;;;;;;1.75;1.02;;;;;;;;;;5129944;27;20027;-84
2022/12/24 03:10:55;;;;;;;2.13;1.92;;;;;;;;;;5122279;27;20023;-83
2022/12/24 03:13:22;;;;;;;2.80;1.70;;;;;;;;;;5127934;27;20095;-84
2022/12/24 03:15:49;;;;;;;3.00;1.48;;;;;;;;;;5109682;27;20494;-84
2022/12/24 03:18:18;;;;;;;4.07;1.50;;;;;;;;;;5104908;27;20387;-85
2022/12/24 03:20:51;;;;;;;3.97;1.73;;;;;;;;;;5110616;27;20494;-85
2022/12/24 03:23:17;;;;;;;2.75;2.03;;;;;;;;;;5128081;27;20019;-85
2022/12/24 03:25:44;;;;;;;1.35;1.05;;;;;;;;;;5127569;27;20485;-84
2022/12/24 03:28:13;;;;;;;5.10;2.10;;;;;;;;;;5099060;27;20019;-84
2022/12/24 03:30:41;;;;;;;3.08;1.85;;;;;;;;;;5125283;27;20030;-84
2022/12/24 03:33:07;;;;;;;1.50;1.30;;;;;;;;;;5105196;27;20034;-84
2022/12/24 03:35:32;;;;;;;2.05;0.88;;;;;;;;;;5125515;27;20483;-83
2022/12/24 03:37:58;;;;;;;1.05;0.88;;;;;;;;;;5127416;27;20027;-84
2022/12/24 03:40:23;;;;;;;0.50;0.50;;;;;;;;;;5117746;27;20026;-85
2022/12/24 03:42:48;;;;;;;1.05;0.70;;;;;;;;;;5105445;27;20024;-84
2022/12/24 03:45:14;;;;;;;0.75;0.63;;;;;;;;;;5107769;27;20069;-84
2022/12/24 03:47:39;;;;;;;2.55;1.10;;;;;;;;;;5108416;27;20471;-84
2022/12/24 03:50:06;;;;;;;0.52;0.52;;;;;;;;;;5123560;27;20466;-85
2022/12/24 03:52:31;;;;;;;1.35;1.02;;;;;;;;;;5124352;27;20511;-85
2022/12/24 03:54:57;;;;;;;0.75;0.75;;;;;;;;;;5130170;27;20026;-84
2022/12/24 03:57:22;;;;;;;0.98;0.70;;;;;;;;;;5124219;27;20090;-84
2022/12/24 03:59:48;;;;;;;1.35;0.60;;;;;;;;;;5103446;28;20119;-84
2022/12/24 04:02:13;;;;;;;0.52;0.50;;;;;;;;;;5128192;27;20029;-84
2022/12/24 04:04:38;;;;;;;0.75;0.75;;;;;;;;;;5122941;27;20023;-84
2022/12/24 04:07:05;;;;;;;0.63;0.50;;;;;;;;;;5123627;27;20028;-85
2022/12/24 04:09:30;;;;;;;1.02;0.45;;;;;;;;;;5110131;27;20034;-85
2022/12/24 04:11:56;;;;;;;0.50;0.50;;;;;;;;;;5125838;27;20031;-84
2022/12/24 04:14:21;;;;;;;1.48;0.68;;;;;;;;;;5109070;27;20027;-84
2022/12/24 04:16:47;;;;;;;1.75;0.77;;;;;;;;;;5122480;27;20387;-84
2022/12/24 04:19:12;;;;;;;0.90;0.73;;;;;;;;;;5123996;27;20114;-84
2022/12/24 04:21:37;;;;;;;1.40;0.80;;;;;;;;;;5104977;27;20035;-83
2022/12/24 04:24:03;;;;;;;1.38;1.08;;;;;;;;;;5123165;27;20038;-84
2022/12/24 04:26:28;;;;;;;1.42;1.33;;;;;;;;;;5102008;27;20102;-84
2022/12/24 04:28:54;;;;;;;1.38;1.00;;;;;;;;;;5105959;27;20023;-84
2022/12/24 04:31:19;;;;;;;0.60;0.60;;;;;;;;;;5122110;27;20027;-85
2022/12/24 04:33:45;;;;;;;0.47;0.47;;;;;;;;;;5124917;27;20029;-84
2022/12/24 04:36:13;;;;;;;0.45;0.45;;;;;;;;;;5121379;27;20519;-84
2022/12/24 04:38:39;;;;;;;1.33;1.02;;;;;;;;;;5101600;28;20114;-85
2022/12/24 04:41:11;;;;;;;1.42;0.80;;;;;;;;;;5115809;27;20098;-84
2022/12/24 04:43:37;;;;;;;2.92;1.10;;;;;;;;;;5129660;27;20536;-83
2022/12/24 04:46:06;;;;;;;1.88;1.08;;;;;;;;;;5124836;27;20026;-83
2022/12/24 04:48:31;;;;;;;1.47;0.80;;;;;;;;;;5124024;27;20059;-84
2022/12/24 04:50:57;;;;;;;0.45;0.43;;;;;;;;;;5117859;27;20116;-84
2022/12/24 04:53:22;;;;;;;1.35;1.10;;;;;;;;;;5121163;27;20487;-82
2022/12/24 04:55:47;;;;;;;0.68;0.68;;;;;;;;;;5122052;27;20138;-84
2022/12/24 04:58:13;;;;;;;0.57;0.57;;;;;;;;;;5093677;28;20528;-84
2022/12/24 05:00:39;;;;;;;1.35;1.08;;;;;;;;;;5120849;28;20047;-84
2022/12/24 05:03:05;;;;;;;0.43;0.43;;;;;;;;;;5130573;28;20015;-84
2022/12/24 05:05:31;;;;;;;2.65;1.50;;;;;;;;;;5117673;28;20075;-84
2022/12/24 05:07:56;;;;;;;1.75;1.55;;;;;;;;;;5119402;28;20035;-84
2022/12/24 05:10:21;;;;;;;2.17;0.85;;;;;;;;;;5119262;27;20137;-84
2022/12/24 05:12:47;;;;;;;1.17;1.08;;;;;;;;;;5107031;27;20027;-85
2022/12/24 05:15:13;;;;;;;0.52;0.52;;;;;;;;;;5120806;27;20027;-85
2022/12/24 05:17:38;;;;;;;3.28;2.10;;;;;;;;;;5109433;27;20023;-85
2022/12/24 05:20:04;;;;;;;0.57;0.57;;;;;;;;;;5123737;27;20025;-85
2022/12/24 05:27:57;;;;;;;0.50;0.50;;;;;;;;;;5116841;27;20026;-84
2022/12/24 05:30:23;;;;;;;0.93;0.47;;;;;;;;;;5126486;27;20027;-83
2022/12/24 05:32:48;;;;;;;0.35;0.35;;;;;;;;;;5106613;27;20030;-83
2022/12/24 05:35:13;;;;;;;2.58;1.05;;;;;;;;;;5102408;27;20027;-85
2022/12/24 05:37:39;;;;;;;1.25;0.75;;;;;;;;;;5104226;27;20087;-83
2022/12/24 05:40:05;;;;;;;1.13;0.63;;;;;;;;;;5122891;27;20020;-85
2022/12/24 05:42:30;;;;;;;2.90;1.55;;;;;;;;;;5100808;28;20023;-83
2022/12/24 05:44:56;;;;;;;1.13;0.88;;;;;;;;;;5126297;27;20033;-83
2022/12/24 05:47:21;;;;;;;0.68;0.63;;;;;;;;;;5127031;27;20038;-83
2022/12/24 05:49:46;;;;;;;0.65;0.65;;;;;;;;;;5125043;27;20042;-83
2022/12/24 05:52:12;;;;;;;2.40;0.95;;;;;;;;;;5095822;28;20388;-84
2022/12/24 05:54:37;;;;;;;1.88;1.45;;;;;;;;;;5083484;28;20040;-84
2022/12/24 05:57:03;;;;;;;1.13;0.68;;;;;;;;;;5084973;28;20025;-86
2022/12/24 05:59:28;;;;;;;1.33;1.05;;;;;;;;;;5080993;28;20105;-83
2022/12/24 06:01:53;;;;;;;0.75;0.68;;;;;;;;;;5079652;28;20103;-83
2022/12/24 06:04:19;;;;;;;2.03;1.02;;;;;;;;;;5082831;28;20039;-83
2022/12/24 06:06:44;;;;;;;0.55;0.52;;;;;;;;;;5080571;28;20488;-86
2022/12/24 06:09:09;;;;;;;1.13;0.82;;;;;;;;;;5081199;28;20016;-86
2022/12/24 06:11:35;;;;;;;0.55;0.55;;;;;;;;;;5084620;28;20031;-86
2022/12/24 06:14:00;;;;;;;2.53;1.00;;;;;;;;;;5080159;28;20024;-87
2022/12/24 06:16:26;;;;;;;1.83;1.23;;;;;;;;;;5078913;28;20036;-86
2022/12/24 06:18:51;;;;;;;3.47;2.33;;;;;;;;;;5077535;28;20039;-87
2022/12/24 06:21:17;;;;;;;2.10;1.33;;;;;;;;;;5077169;28;20033;-88
2022/12/24 06:23:44;;;;;;;2.95;1.52;;;;;;;;;;5085412;28;20020;-87
2022/12/24 06:26:12;;;;;;;3.20;2.13;;;;;;;;;;5086159;28;20033;-88
2022/12/24 06:28:38;;;;;;;2.08;1.40;;;;;;;;;;5079088;28;20045;-87
2022/12/24 06:31:05;;;;;;;3.45;2.28;;;;;;;;;;5083606;28;20054;-89
2022/12/24 06:33:31;;;;;;;4.07;1.25;;;;;;;;;;5086662;28;20468;-87
2022/12/24 06:35:57;;;;;;;1.65;1.48;;;;;;;;;;5084205;28;20388;-87
2022/12/24 06:38:22;;;;;;;3.15;2.35;;;;;;;;;;5082920;28;20030;-89
2022/12/24 06:40:48;;;;;;;5.05;3.22;;;;;;;;;;5084254;28;20039;-86
2022/12/24 06:43:14;;;;;;;6.00;2.75;;;;;;;;;;5081719;28;20013;-87
2022/12/24 06:45:44;;;;;;;3.97;2.58;;;;;;;;;;5083659;28;20484;-88
2022/12/24 06:48:09;;;;;;;5.30;3.25;;;;;;;;;;5086680;28;20024;-88
2022/12/24 06:50:34;;;;;;;4.22;3.15;;;;;;;;;;5082622;28;20177;-87
2022/12/24 06:53:00;;;;;;;7.28;3.55;;;;;;;;;;5111677;27;20032;-87
2022/12/24 06:55:25;;;;;;;5.03;2.83;;;;;;;;;;5108408;27;20030;-88
2022/12/24 06:57:50;;;;;;;8.38;4.18;;;;;;;;;;5102176;27;20028;-88
2022/12/24 07:00:16;;;;;;;5.45;4.00;;;;;;;;;;5102482;28;20020;-89
2022/12/24 07:02:43;;;;;;;7.10;4.32;;;;;;;;;;5108201;27;20413;-89
2022/12/24 07:05:11;;;;;;;7.45;4.63;;;;;;;;;;5105131;28;20119;-87
2022/12/24 07:07:38;;;;;;;10.18;4.90;;;;;;;;;;5129229;27;20027;-89
2022/12/24 07:10:04;;;;;;;9.77;5.68;;;;;;;;;;5105725;27;20024;-89
2022/12/24 07:12:29;;;;;;;7.53;5.15;;;;;;;;;;5110692;27;20118;-89
2022/12/24 07:14:55;;;;;;;8.95;5.38;;;;;;;;;;5117660;27;20107;-88
2022/12/24 07:17:20;;;;;;;6.97;5.07;;;;;;;;;;5129727;27;20114;-90
2022/12/24 07:19:46;;;;;;;8.88;5.13;;;;;;;;;;5125043;27;20023;-88
2022/12/24 07:22:11;;;;;;;5.93;4.32;;;;;;;;;;5102636;27;20069;-89
2022/12/24 07:24:36;;;;;;;5.32;3.42;;;;;;;;;;5123206;27;20079;-88
2022/12/24 07:27:02;;;;;;;6.22;4.63;;;;;;;;;;5118293;27;20106;-88
2022/12/24 07:29:27;;;;;;;3.95;3.08;;;;;;;;;;5107346;27;20058;-88
2022/12/24 07:31:53;;;;;;;5.88;4.47;;;;;;;;;;5109204;28;20091;-89
2022/12/24 07:34:18;;;;;;;6.88;3.90;;;;;;;;;;5097653;27;20031;-89
2022/12/24 07:36:43;;;;;;;6.75;5.22;;;;;;;;;;5123316;27;20020;-87
2022/12/24 07:39:09;;;;;;;8.95;5.93;;;;;;;;;;5107118;27;20027;-87
2022/12/24 07:41:34;;;;;;;20.33;11.80;;;;;;;;;;5102608;27;20031;-89
2022/12/24 07:43:59;;;;;;;7.97;5.72;;;;;;;;;;5097402;28;20024;-89
2022/12/24 07:46:25;;;;;;;8.88;4.60;;;;;;;;;;5123406;27;20043;-87
2022/12/24 07:48:50;;;;;;;9.98;6.10;;;;;;;;;;5125286;27;20019;-90
2022/12/24 07:51:16;;;;;;;11.30;5.72;;;;;;;;;;5123224;27;20028;-89
2022/12/24 07:53:46;;;;;;;9.20;5.90;;;;;;;;;;5099311;27;20138;-87
2022/12/24 07:56:15;;;;;;;12.18;6.28;;;;;;;;;;5119494;27;20027;-87
2022/12/24 07:58:41;;;;;;;8.63;5.30;;;;;;;;;;5126015;27;20102;-87
2022/12/24 08:01:07;;;;;;;11.02;6.07;;;;;;;;;;5107043;27;20087;-88
2022/12/24 08:03:33;;;;;;;9.35;6.05;;;;;;;;;;5114947;27;20080;-86
2022/12/24 08:05:58;;;;;;;9.63;6.78;;;;;;;;;;5105423;27;20106;-87
2022/12/24 08:08:24;;;;;;;12.25;6.82;;;;;;;;;;5121108;27;20030;-87
2022/12/24 08:10:50;;;;;;;13.20;8.82;;;;;;;;;;5123017;27;20027;-88
2022/12/24 08:13:16;;;;;;;20.13;11.93;;;;;;;;;;5117498;27;20468;-88
2022/12/24 08:15:42;;;;;;;11.30;6.00;;;;;;;;;;5102965;27;20046;-88
2022/12/24 08:18:08;;;;;;;7.68;3.92;;;;;;;;;;5096177;28;20055;-87
2022/12/24 08:20:33;;;;;;;9.02;5.30;;;;;;;;;;5102473;27;20026;-88
2022/12/24 08:22:59;;;;;;;8.35;4.97;;;;;;;;;;5121203;27;20374;-86
2022/12/24 08:25:24;;;;;;;7.10;4.13;;;;;;;;;;5114998;27;20031;-86
2022/12/24 08:27:50;;;;;;;5.97;3.72;;;;;;;;;;5108093;27;20989;-87
2022/12/24 08:30:15;;;;;;;6.53;4.38;;;;;;;;;;5097784;28;20035;-89
2022/12/24 08:32:41;;;;;;;13.02;5.38;;;;;;;;;;5124495;27;20098;-88
2022/12/24 08:35:06;;;;;;;8.65;5.35;;;;;;;;;;5121724;27;20030;-89
2022/12/24 08:37:32;;;;;;;4.38;3.35;;;;;;;;;;5104400;28;20102;-87
2022/12/24 08:39:57;;;;;;;6.85;4.60;;;;;;;;;;5099338;27;20035;-88
2022/12/24 08:42:23;;;;;;;7.63;4.53;;;;;;;;;;5101102;28;20035;-88
2022/12/24 08:44:48;;;;;;;6.35;4.32;;;;;;;;;;5108378;27;20033;-89
2022/12/24 08:47:13;;;;;;;7.40;4.72;;;;;;;;;;5119821;27;20059;-88
2022/12/24 08:49:39;;;;;;;7.85;4.40;;;;;;;;;;5101835;28;20383;-88
2022/12/24 08:52:05;;;;;;;8.88;5.00;;;;;;;;;;5092807;28;20076;-89
2022/12/24 08:54:31;;;;;;;11.18;6.57;;;;;;;;;;5077364;28;20054;-89
2022/12/24 08:56:57;;;;;;;9.00;4.60;;;;;;;;;;5081370;28;20034;-88
2022/12/24 08:59:22;;;;;;;26.95;15.25;;;;;;;;;;5079621;28;20028;-89
2022/12/24 09:01:48;;;;;;;13.15;7.13;;;;;;;;;;5074736;28;20060;-83
2022/12/24 09:04:13;;;;;;;10.27;6.18;;;;;;;;;;5080433;28;20102;-85
2022/12/24 09:06:39;;;;;;;6.78;3.97;;;;;;;;;;5082853;28;20087;-86
2022/12/24 09:09:05;;;;;;;6.40;3.92;;;;;;;;;;5073907;28;20043;-88
2022/12/24 09:11:33;;;;;;;7.75;4.53;;;;;;;;;;5081860;28;20028;-86
2022/12/24 09:13:59;;;;;;;9.48;5.97;;;;;;;;;;5084543;28;20063;-88
2022/12/24 09:16:24;;;;;;;9.63;6.47;;;;;;;;;;5079703;28;20036;-89
2022/12/24 09:18:50;;;;;;;10.40;6.47;;;;;;;;;;5080517;28;20030;-90
2022/12/24 09:21:18;;;;;;;9.98;5.88;;;;;;;;;;5074224;28;20503;-89
2022/12/24 09:23:46;;;;;;;10.68;5.35;;;;;;;;;;5072431;28;20048;-90
2022/12/24 09:26:17;;;;;;;11.38;6.28;;;;;;;;;;5082966;28;20457;-87
2022/12/24 09:28:44;;;;;;;7.78;5.22;;;;;;;;;;5081035;28;20028;-90
2022/12/24 09:31:11;;;;;;;8.65;6.25;;;;;;;;;;5082584;28;20066;-88
2022/12/24 09:33:38;;;;;;;6.45;5.10;;;;;;;;;;5084200;28;20051;-89
2022/12/24 09:36:04;;;;;;;9.07;4.90;;;;;;;;;;5078391;28;20480;-89
2022/12/24 09:38:30;;;;;;;8.45;5.07;;;;;;;;;;5081256;28;20029;-90
2022/12/24 09:40:57;;;;;;;8.13;4.90;;;;;;;;;;5078603;28;20037;-88
2022/12/24 09:43:25;;;;;;;7.47;4.70;;;;;;;;;;5078090;28;20046;-88
2022/12/24 09:46:05;;;;;;;16.73;7.97;;;;;;;;;;5080236;28;20034;-88
2022/12/24 09:48:36;;;;;;;26.73;14.35;;;;;;;;;;5074520;28;20020;-86
2022/12/24 09:51:08;;;;;;;14.00;10.82;;;;;;;;;;5074270;28;20365;-87
2022/12/24 09:53:55;;;;;;;11.65;6.43;;;;;;;;;;5104467;28;20044;-88
2022/12/24 09:56:26;;;;;;;13.80;6.55;;;;;;;;;;5075576;28;20028;-89
2022/12/24 09:58:59;;;;;;;9.07;6.35;;;;;;;;;;5081564;28;20023;-85
2022/12/24 10:01:28;;;;;;;6.55;5.22;;;;;;;;;;5085691;28;20403;-87
2022/12/24 10:03:53;;;;;;;9.43;5.13;;;;;;;;;;5079119;28;20074;-87
2022/12/24 10:06:22;;;;;;;6.65;4.13;;;;;;;;;;5080084;28;20032;-88
2022/12/24 10:09:15;;;;;;;5.93;3.92;;;;;;;;;;5074998;28;20025;-87
2022/12/24 10:12:02;;;;;;;6.07;3.92;;;;;;;;;;5082485;28;20028;-90
2022/12/24 10:14:28;;;;;;;13.43;6.38;;;;;;;;;;5111362;27;20025;-87
2022/12/24 10:17:05;;;;;;;6.22;4.07;;;;;;;;;;5082221;28;20349;-88
2022/12/24 10:19:52;;;;;;;5.97;3.65;;;;;;;;;;5083205;28;20024;-87
2022/12/24 10:22:27;;;;;;;9.05;5.72;;;;;;;;;;5075149;28;20138;-89
2022/12/24 10:25:13;;;;;;;11.23;4.05;;;;;;;;;;5079719;28;20023;-89
2022/12/24 10:27:39;;;;;;;9.57;5.13;;;;;;;;;;5079009;28;20032;-89
2022/12/24 10:30:20;;;;;;;7.25;4.15;;;;;;;;;;5084726;28;20020;-90
2022/12/24 10:32:51;;;;;;;7.40;4.97;;;;;;;;;;5085796;28;20379;-92
2022/12/24 10:35:20;;;;;;;6.35;4.20;;;;;;;;;;5084739;28;20024;-90
2022/12/24 10:37:47;;;;;;;8.73;5.97;;;;;;;;;;5082701;28;20055;-88
2022/12/24 10:40:14;;;;;;;8.68;5.20;;;;;;;;;;5087068;28;20533;-88
2022/12/24 10:42:42;;;;;;;8.32;4.05;;;;;;;;;;5082521;28;20036;-91
2022/12/24 10:45:14;;;;;;;5.68;3.75;;;;;;;;;;5084610;28;20020;-90
2022/12/24 10:47:43;;;;;;;8.80;6.30;;;;;;;;;;5084204;28;20032;-88
2022/12/24 10:50:20;;;;;;;17.17;10.18;;;;;;;;;;5079243;28;20032;-88
2022/12/24 10:52:46;;;;;;;9.15;6.47;;;;;;;;;;5101568;27;20490;-89
2022/12/24 10:55:18;;;;;;;7.80;4.78;;;;;;;;;;5103841;27;20188;-89
2022/12/24 10:58:03;;;;;;;8.38;5.25;;;;;;;;;;5124219;27;20031;-86
2022/12/24 11:00:30;;;;;;;11.57;7.00;;;;;;;;;;5118730;27;20118;-91
2022/12/24 11:03:11;;;;;;;6.10;5.47;;;;;;;;;;5126587;27;20023;-89
2022/12/24 11:05:38;;;;;;;9.38;5.72;;;;;;;;;;5104909;27;20027;-89
2022/12/24 11:08:12;;;;;;;8.65;5.90;;;;;;;;;;5099048;27;20031;-88
2022/12/24 11:10:52;;;;;;;10.40;5.85;;;;;;;;;;5091239;27;20517;-88
2022/12/24 11:13:30;;;;;;;12.90;7.55;;;;;;;;;;5098884;27;20055;-89
2022/12/24 11:16:14;;;;;;;10.50;7.40;;;;;;;;;;5096731;28;20552;-86
2022/12/24 11:18:47;;;;;;;12.98;7.45;;;;;;;;;;5101662;27;20031;-87
2022/12/24 11:21:22;;;;;;;11.50;7.28;;;;;;;;;;5120219;27;20028;-89
2022/12/24 11:23:52;;;;;;;12.20;8.45;;;;;;;;;;5120464;27;20391;-88
2022/12/24 11:26:22;;;;;;;10.80;7.30;;;;;;;;;;5117880;27;20028;-89
2022/12/24 11:29:05;;;;;;;12.50;8.57;;;;;;;;;;5106842;27;20355;-91
2022/12/24 11:31:34;;;;;;;11.32;7.97;;;;;;;;;;5104634;27;20020;-89
2022/12/24 11:34:00;;;;;;;15.88;10.10;;;;;;;;;;5124561;27;20061;-89
2022/12/24 11:36:28;;;;;;;12.52;8.27;;;;;;;;;;5119305;27;20043;-89
2022/12/24 11:38:58;;;;;;;10.48;6.60;;;;;;;;;;5119807;27;20023;-87
2022/12/24 11:41:25;;;;;;;14.10;8.67;;;;;;;;;;5109054;27;20027;-87
2022/12/24 11:44:00;;;;;;;11.30;8.70;;;;;;;;;;5103253;27;20034;-89
2022/12/24 11:46:40;;;;;;;11.18;8.15;;;;;;;;;;5101520;28;20032;-87
2022/12/24 11:49:11;;;;;;;17.65;8.63;;;;;;;;;;5127312;27;20085;-90
2022/12/24 11:52:02;;;;;;;16.15;9.27;;;;;;;;;;5102121;27;20029;-88
2022/12/24 11:54:33;;;;;;;18.27;10.32;;;;;;;;;;5098559;27;20027;-88
2022/12/24 11:57:01;;;;;;;19.42;11.60;;;;;;;;;;5103866;27;20416;-88
2022/12/24 11:59:39;;;;;;;16.23;10.25;;;;;;;;;;5116606;27;20027;-88
2022/12/24 12:02:16;;;;;;;13.82;8.80;;;;;;;;;;5113403;27;20016;-90
2022/12/24 12:04:45;;;;;;;13.05;9.45;;;;;;;;;;5099562;28;20083;-88
2022/12/24 12:07:19;;;;;;;14.85;10.13;;;;;;;;;;5126043;27;20075;-90
2022/12/24 12:09:50;;;;;;;16.15;10.93;;;;;;;;;;5123874;27;20026;-89
2022/12/24 12:12:28;;;;;;;16.23;10.00;;;;;;;;;;5107580;28;20016;-89
2022/12/24 12:15:00;;;;;;;17.08;9.48;;;;;;;;;;5109236;27;20110;-89
2022/12/24 12:17:38;;;;;;;15.73;10.98;;;;;;;;;;5102827;28;20020;-91
2022/12/24 12:20:16;;;;;;;14.57;9.43;;;;;;;;;;5099424;27;20069;-90
2022/12/24 12:23:04;;;;;;;16.65;11.35;;;;;;;;;;5118160;27;20023;-91
2022/12/24 12:26:11;;;;;;;17.35;12.18;;;;;;;;;;5104404;27;20058;-89
2022/12/24 12:28:55;;;;;;;14.88;10.32;;;;;;;;;;5104150;28;20501;-89
2022/12/24 12:31:36;;;;;;;15.73;11.10;;;;;;;;;;5106225;27;20101;-89
2022/12/24 12:34:03;;;;;;;16.65;12.30;;;;;;;;;;5097103;28;20514;-88
2022/12/24 12:36:33;;;;;;;19.85;12.90;;;;;;;;;;5101406;27;20042;-90
2022/12/24 12:38:59;;;;;;;;;;;;;;;;;;5097809;28;20084;-89
2022/12/24 12:41:57;;;;;;;15.85;10.80;;;;;;;;;;5104361;27;19911;-90
2022/12/24 12:44:29;;;;;;;13.65;9.98;;;;;;;;;;5116012;27;20042;-90
2022/12/24 12:47:14;;;;;;;18.98;12.55;;;;;;;;;;5116950;27;20047;-87
2022/12/24 12:49:56;;;;;;;17.35;12.18;;;;;;;;;;5077982;27;20089;-92
2022/12/24 12:52:27;;;;;;;16.25;11.95;;;;;;;;;;5095038;28;20105;-90
2022/12/24 12:55:09;;;;;;;19.00;11.75;;;;;;;;;;5074262;28;20089;-90
2022/12/24 12:57:38;;;;;;;19.50;13.85;;;;;;;;;;5079440;28;20472;-91
2022/12/24 13:00:10;;;;;;;21.42;12.18;;;;;;;;;;5077976;28;20024;-88
2022/12/24 13:02:57;;;;;;;16.48;10.90;;;;;;;;;;5076298;28;20404;-88
2022/12/24 13:05:43;;;;;;;14.05;11.45;;;;;;;;;;5080139;28;20380;-91
2022/12/24 13:11:28;;;;;;;24.13;13.18;;;;;;;;;;5085919;28;20028;-88
2022/12/24 13:14:35;;;;;;;24.40;12.90;;;;;;;;;;5078368;28;20372;-89
2022/12/24 13:17:10;;;;;;;24.15;12.10;;;;;;;;;;5083042;28;20033;-87
2022/12/24 13:19:54;;;;;;;17.38;12.50;;;;;;;;;;5080999;28;20053;-89
2022/12/24 13:22:22;;;;;;;18.27;13.43;;;;;;;;;;5085858;28;20395;-87
2022/12/24 13:24:51;;;;;;;22.27;12.25;;;;;;;;;;5078715;28;20021;-89
2022/12/24 13:27:19;;;;;;;23.65;14.40;;;;;;;;;;5080660;28;20107;-90
2022/12/24 13:29:54;;;;;;;23.38;15.23;;;;;;;;;;5087217;28;20035;-88
2022/12/24 13:32:19;;;;;;;25.20;15.80;;;;;;;;;;5089047;28;20033;-89
2022/12/24 13:35:01;;;;;;;22.38;14.55;;;;;;;;;;5080945;28;20103;-89
2022/12/24 13:37:34;;;;;;;23.33;16.50;;;;;;;;;;5087582;28;20028;-87
2022/12/24 13:40:15;;;;;;;24.02;16.33;;;;;;;;;;5087211;28;20081;-90
2022/12/24 13:43:04;;;;;;;22.73;17.10;;;;;;;;;;5086673;28;20035;-88
2022/12/24 13:45:33;;;;;;;27.27;17.80;;;;;;;;;;5087137;28;20032;-88
2022/12/24 13:48:12;;;;;;;24.52;15.23;;;;;;;;;;5084143;28;20262;-91
2022/12/24 13:50:40;;;;;;;25.92;16.65;;;;;;;;;;5083668;28;20121;-90
2022/12/24 13:53:17;;;;;;;29.58;17.40;;;;;;;;;;5085518;28;20044;-87
2022/12/24 13:55:51;;;;;;;29.02;17.77;;;;;;;;;;5087051;28;20536;-88
2022/12/24 13:58:19;;;;;;;6.70;4.80;;;;;;;;;;5085068;28;20379;-90
2022/12/24 14:01:03;;;;;;;14.73;9.68;;;;;;;;;;5087449;28;20040;-87
2022/12/24 14:03:36;;;;;;;12.77;7.22;;;;;;;;;;5086378;28;20107;-89
2022/12/24 14:06:07;;;;;;;18.58;11.82;;;;;;;;;;5084652;28;20484;-88
2022/12/24 14:08:40;;;;;;;15.18;8.82;;;;;;;;;;5084319;28;20038;-91
2022/12/24 14:11:21;;;;;;;20.10;12.98;;;;;;;;;;5087675;28;20471;-87
2022/12/24 14:13:50;;;;;;;23.88;14.57;;;;;;;;;;5085272;28;20036;-87
2022/12/24 14:16:28;;;;;;;23.70;13.70;;;;;;;;;;5080862;28;20032;-88
2022/12/24 14:19:02;;;;;;;18.85;13.38;;;;;;;;;;5082961;28;20544;-88
2022/12/24 14:21:31;;;;;;;21.75;14.00;;;;;;;;;;5082951;28;20028;-87
2022/12/24 14:24:21;;;;;;;19.77;15.05;;;;;;;;;;5082023;28;20034;-86
2022/12/24 14:26:51;;;;;;;21.95;11.63;;;;;;;;;;5081424;28;20033;-86
2022/12/24 14:29:25;;;;;;;20.65;10.20;;;;;;;;;;5084816;28;20078;-89
2022/12/24 14:31:53;;;;;;;19.55;10.70;;;;;;;;;;5082557;28;20519;-90
2022/12/24 14:34:19;;;;;;;9.88;5.93;;;;;;;;;;5080102;28;20024;-86
2022/12/24 14:36:46;;;;;;;7.40;3.03;;;;;;;;;;5079177;28;20030;-87
2022/12/24 14:39:22;;;;;;;3.58;2.15;;;;;;;;;;5086046;28;20016;-86
2022/12/24 14:42:05;;;;;;;3.08;1.65;;;;;;;;;;5081073;28;20024;-85
2022/12/24 14:44:47;;;;;;;4.45;3.10;;;;;;;;;;5083161;28;20027;-85
2022/12/24 14:47:46;;;;;;;3.63;3.20;;;;;;;;;;5081396;28;20384;-85
2022/12/24 14:50:30;;;;;;;4.53;2.37;;;;;;;;;;5076159;28;20048;-86
2022/12/24 14:53:05;;;;;;;7.78;5.40;;;;;;;;;;5106268;27;20071;-86
2022/12/24 14:55:45;;;;;;;11.43;5.22;;;;;;;;;;5099589;27;20031;-87
2022/12/24 14:58:31;;;;;;;5.95;3.13;;;;;;;;;;5124598;27;20470;-86
2022/12/24 15:01:02;;;;;;;5.10;3.80;;;;;;;;;;5120937;27;20030;-86
2022/12/24 15:03:31;;;;;;;4.38;3.10;;;;;;;;;;5125313;27;20065;-85
2022/12/24 15:06:00;;;;;;;5.53;4.00;;;;;;;;;;5106195;27;20036;-85